AUA9095 LOWW-LGKR
Flight info
| Callsign | AUA9095 |
|---|---|
| Flight time | 1h 26m |
| Altitude | 35000 |
| Route | ARSIN DCT NALOX DCT OSDUK DCT SIVLA DCT PERAN DCT RODON DCT LIMJA N732 PITAS |
| Aircraft | A321/M-SDE3FGHIRWY/LB1 |
Departure
| Time | 2026-04-25 07:14 |
|---|---|
| Airport | Vienna International Airport (LOWW) |
Arrival
| Time | 2026-04-25 08:40 |
|---|---|
| Airport | Corfu Ioannis Kapodistrias International Airport (LGKR) |
| Time | Latitude | Longitude | Altitude | Speed | Heading |
|---|---|---|---|---|---|
| 2026-04-25 06:40 | 48.12024 | 16.56929 | 611 ft | 0 kts | 26° |
| 2026-04-25 07:05 | 48.12023 | 16.56928 | 637 ft | 2 kts | 26° |
| 2026-04-25 07:05 | 48.12002 | 16.56909 | 622 ft | 4 kts | 46° |
| 2026-04-25 07:05 | 48.11990 | 16.56879 | 623 ft | 4 kts | 92° |
| 2026-04-25 07:05 | 48.11991 | 16.56863 | 623 ft | 0 kts | 116° |
| 2026-04-25 07:08 | 48.11991 | 16.56867 | 621 ft | 3 kts | 108° |
| 2026-04-25 07:08 | 48.11966 | 16.56947 | 615 ft | 11 kts | 116° |
| 2026-04-25 07:08 | 48.11936 | 16.57037 | 612 ft | 9 kts | 116° |
| 2026-04-25 07:09 | 48.11912 | 16.57111 | 622 ft | 7 kts | 116° |
| 2026-04-25 07:09 | 48.11889 | 16.57171 | 617 ft | 9 kts | 129° |
| 2026-04-25 07:09 | 48.11829 | 16.57291 | 618 ft | 16 kts | 116° |
| 2026-04-25 07:09 | 48.11750 | 16.57371 | 615 ft | 14 kts | 163° |
| 2026-04-25 07:10 | 48.11664 | 16.57407 | 616 ft | 12 kts | 164° |
| 2026-04-25 07:10 | 48.11591 | 16.57438 | 622 ft | 10 kts | 164° |
| 2026-04-25 07:10 | 48.11521 | 16.57462 | 613 ft | 10 kts | 179° |
| 2026-04-25 07:10 | 48.11441 | 16.57424 | 622 ft | 13 kts | 205° |
| 2026-04-25 07:11 | 48.11366 | 16.57370 | 609 ft | 11 kts | 206° |
| 2026-04-25 07:11 | 48.11299 | 16.57321 | 609 ft | 10 kts | 206° |
| 2026-04-25 07:11 | 48.11239 | 16.57283 | 619 ft | 10 kts | 190° |
| 2026-04-25 07:11 | 48.11177 | 16.57373 | 618 ft | 15 kts | 117° |
| 2026-04-25 07:12 | 48.11133 | 16.57508 | 619 ft | 14 kts | 116° |
| 2026-04-25 07:12 | 48.11027 | 16.57635 | 609 ft | 10 kts | 201° |
| 2026-04-25 07:12 | 48.10971 | 16.57596 | 622 ft | 8 kts | 206° |
| 2026-04-25 07:13 | 48.10923 | 16.57536 | 620 ft | 10 kts | 256° |
| 2026-04-25 07:13 | 48.10943 | 16.57446 | 619 ft | 9 kts | 296° |
| 2026-04-25 07:13 | 48.10990 | 16.57302 | 621 ft | 33 kts | 296° |
| 2026-04-25 07:13 | 48.11198 | 16.56662 | 611 ft | 101 kts | 296° |
| 2026-04-25 07:14 | 48.11580 | 16.55491 | 623 ft | 151 kts | 296° |
| 2026-04-25 07:14 | 48.12061 | 16.53956 | 987 ft | 164 kts | 289° |
| 2026-04-25 07:14 | 48.11966 | 16.52291 | 1662 ft | 171 kts | 242° |
| 2026-04-25 07:14 | 48.11068 | 16.50983 | 2068 ft | 192 kts | 222° |
| 2026-04-25 07:15 | 48.09947 | 16.49707 | 2290 ft | 213 kts | 222° |
| 2026-04-25 07:15 | 48.08716 | 16.48298 | 2533 ft | 235 kts | 221° |
| 2026-04-25 07:15 | 48.07127 | 16.47291 | 2777 ft | 267 kts | 186° |
| 2026-04-25 07:15 | 48.05239 | 16.47478 | 3416 ft | 277 kts | 175° |
| 2026-04-25 07:16 | 48.03300 | 16.47860 | 4119 ft | 284 kts | 175° |
| 2026-04-25 07:16 | 48.01352 | 16.48271 | 4767 ft | 290 kts | 175° |
| 2026-04-25 07:16 | 47.99345 | 16.48686 | 5358 ft | 292 kts | 175° |
| 2026-04-25 07:16 | 47.97346 | 16.49284 | 6099 ft | 298 kts | 161° |
| 2026-04-25 07:17 | 47.95420 | 16.50490 | 6778 ft | 302 kts | 158° |
| 2026-04-25 07:17 | 47.93483 | 16.51751 | 7456 ft | 305 kts | 158° |
| 2026-04-25 07:17 | 47.91527 | 16.53030 | 8151 ft | 308 kts | 157° |
| 2026-04-25 07:17 | 47.89557 | 16.54315 | 8862 ft | 310 kts | 156° |
| 2026-04-25 07:18 | 47.87572 | 16.55605 | 9543 ft | 313 kts | 156° |
| 2026-04-25 07:18 | 47.85573 | 16.56902 | 10203 ft | 316 kts | 156° |
| 2026-04-25 07:18 | 47.83515 | 16.58233 | 10341 ft | 337 kts | 156° |
| 2026-04-25 07:18 | 47.81307 | 16.59662 | 10467 ft | 356 kts | 156° |
| 2026-04-25 07:19 | 47.78977 | 16.61164 | 10593 ft | 374 kts | 156° |
| 2026-04-25 07:19 | 47.76541 | 16.62727 | 10859 ft | 386 kts | 156° |
| 2026-04-25 07:19 | 47.74059 | 16.64311 | 11355 ft | 390 kts | 156° |
| 2026-04-25 07:19 | 47.71553 | 16.65908 | 11912 ft | 393 kts | 156° |
| 2026-04-25 07:20 | 47.69031 | 16.67515 | 12465 ft | 396 kts | 156° |
| 2026-04-25 07:20 | 47.66493 | 16.69133 | 13021 ft | 399 kts | 156° |
| 2026-04-25 07:20 | 47.63973 | 16.70740 | 13550 ft | 401 kts | 156° |
| 2026-04-25 07:20 | 47.61399 | 16.72385 | 14058 ft | 404 kts | 156° |
| 2026-04-25 07:21 | 47.58805 | 16.74023 | 14511 ft | 407 kts | 159° |
| 2026-04-25 07:21 | 47.56082 | 16.75217 | 14943 ft | 410 kts | 169° |
| 2026-04-25 07:21 | 47.53249 | 16.75714 | 15400 ft | 412 kts | 177° |
| 2026-04-25 07:21 | 47.50378 | 16.75974 | 15830 ft | 414 kts | 177° |
| 2026-04-25 07:22 | 47.47492 | 16.76241 | 16237 ft | 417 kts | 177° |
| 2026-04-25 07:22 | 47.44587 | 16.76515 | 16647 ft | 420 kts | 176° |
| 2026-04-25 07:22 | 47.41702 | 16.76788 | 17037 ft | 422 kts | 176° |
| 2026-04-25 07:22 | 47.38765 | 16.77068 | 17404 ft | 425 kts | 176° |
| 2026-04-25 07:23 | 47.35802 | 16.77356 | 17762 ft | 428 kts | 176° |
| 2026-04-25 07:23 | 47.32825 | 16.77648 | 18129 ft | 430 kts | 176° |
| 2026-04-25 07:23 | 47.29826 | 16.77939 | 18475 ft | 433 kts | 176° |
| 2026-04-25 07:23 | 47.26815 | 16.78231 | 18775 ft | 434 kts | 177° |
| 2026-04-25 07:24 | 47.23804 | 16.78520 | 19231 ft | 433 kts | 178° |
| 2026-04-25 07:24 | 47.20802 | 16.78802 | 19610 ft | 433 kts | 178° |
| 2026-04-25 07:24 | 47.17833 | 16.79083 | 19963 ft | 434 kts | 178° |
| 2026-04-25 07:24 | 47.14811 | 16.79372 | 20317 ft | 436 kts | 178° |
| 2026-04-25 07:25 | 47.11775 | 16.79658 | 20658 ft | 438 kts | 178° |
| 2026-04-25 07:25 | 47.08733 | 16.79943 | 21025 ft | 439 kts | 178° |
| 2026-04-25 07:25 | 47.05677 | 16.80229 | 21389 ft | 441 kts | 178° |
| 2026-04-25 07:25 | 47.02605 | 16.80520 | 21759 ft | 443 kts | 178° |
| 2026-04-25 07:26 | 46.99527 | 16.80818 | 22117 ft | 444 kts | 178° |
| 2026-04-25 07:26 | 46.96438 | 16.81118 | 22472 ft | 446 kts | 178° |
| 2026-04-25 07:26 | 46.93375 | 16.81412 | 22810 ft | 448 kts | 178° |
| 2026-04-25 07:26 | 46.90272 | 16.82031 | 23147 ft | 452 kts | 168° |
| 2026-04-25 07:27 | 46.87264 | 16.83404 | 23465 ft | 456 kts | 158° |
| 2026-04-25 07:27 | 46.84431 | 16.85526 | 23762 ft | 459 kts | 148° |
| 2026-04-25 07:27 | 46.81869 | 16.88329 | 24023 ft | 462 kts | 140° |
| 2026-04-25 07:27 | 46.79428 | 16.91389 | 24288 ft | 464 kts | 140° |
| 2026-04-25 07:28 | 46.76971 | 16.94456 | 24564 ft | 466 kts | 140° |
| 2026-04-25 07:28 | 46.74499 | 16.97523 | 24836 ft | 468 kts | 140° |
| 2026-04-25 07:28 | 46.72046 | 17.00554 | 25099 ft | 470 kts | 140° |
| 2026-04-25 07:28 | 46.69547 | 17.03637 | 25367 ft | 472 kts | 140° |
| 2026-04-25 07:29 | 46.67034 | 17.06730 | 25628 ft | 473 kts | 140° |
| 2026-04-25 07:29 | 46.64516 | 17.09826 | 25890 ft | 475 kts | 140° |
| 2026-04-25 07:29 | 46.61988 | 17.12939 | 26145 ft | 477 kts | 140° |
| 2026-04-25 07:29 | 46.59449 | 17.16068 | 26396 ft | 479 kts | 140° |
| 2026-04-25 07:30 | 46.56906 | 17.19203 | 26637 ft | 480 kts | 140° |
| 2026-04-25 07:30 | 46.54351 | 17.22344 | 26872 ft | 482 kts | 140° |
| 2026-04-25 07:30 | 46.51818 | 17.25448 | 27088 ft | 484 kts | 140° |
| 2026-04-25 07:30 | 46.49241 | 17.28599 | 27289 ft | 485 kts | 140° |
| 2026-04-25 07:31 | 46.46654 | 17.31760 | 27476 ft | 487 kts | 140° |
| 2026-04-25 07:31 | 46.44063 | 17.34927 | 27687 ft | 488 kts | 140° |
| 2026-04-25 07:31 | 46.41459 | 17.38105 | 27868 ft | 489 kts | 140° |
| 2026-04-25 07:31 | 46.38850 | 17.41288 | 28047 ft | 491 kts | 140° |
| 2026-04-25 07:32 | 46.36239 | 17.44471 | 28250 ft | 491 kts | 140° |
| 2026-04-25 07:32 | 46.33626 | 17.47649 | 28504 ft | 490 kts | 140° |
| 2026-04-25 07:32 | 46.31049 | 17.50769 | 28742 ft | 490 kts | 140° |
| 2026-04-25 07:32 | 46.28433 | 17.53928 | 28979 ft | 489 kts | 140° |
| 2026-04-25 07:33 | 46.25821 | 17.57078 | 29211 ft | 489 kts | 140° |
| 2026-04-25 07:33 | 46.23211 | 17.60230 | 29447 ft | 489 kts | 140° |
| 2026-04-25 07:33 | 46.20608 | 17.63376 | 29681 ft | 488 kts | 140° |
| 2026-04-25 07:33 | 46.18005 | 17.66517 | 29912 ft | 488 kts | 140° |
| 2026-04-25 07:34 | 46.15401 | 17.69649 | 30152 ft | 487 kts | 140° |
| 2026-04-25 07:34 | 46.12801 | 17.72775 | 30348 ft | 487 kts | 140° |
| 2026-04-25 07:34 | 46.10233 | 17.75860 | 30549 ft | 486 kts | 141° |
| 2026-04-25 07:34 | 46.07635 | 17.78976 | 30760 ft | 486 kts | 141° |
| 2026-04-25 07:35 | 46.05041 | 17.82080 | 30961 ft | 485 kts | 141° |
| 2026-04-25 07:35 | 46.02442 | 17.85188 | 31177 ft | 485 kts | 141° |
| 2026-04-25 07:35 | 45.99849 | 17.88290 | 31374 ft | 485 kts | 141° |
| 2026-04-25 07:35 | 45.97263 | 17.91385 | 31577 ft | 484 kts | 141° |
| 2026-04-25 07:36 | 45.94674 | 17.94477 | 31786 ft | 483 kts | 141° |
| 2026-04-25 07:36 | 45.92086 | 17.97559 | 31995 ft | 483 kts | 141° |
| 2026-04-25 07:36 | 45.89532 | 18.00592 | 32201 ft | 482 kts | 141° |
| 2026-04-25 07:36 | 45.86947 | 18.03653 | 32410 ft | 482 kts | 141° |
| 2026-04-25 07:37 | 45.84360 | 18.06710 | 32615 ft | 481 kts | 141° |
| 2026-04-25 07:37 | 45.81761 | 18.09724 | 32817 ft | 480 kts | 144° |
| 2026-04-25 07:37 | 45.78946 | 18.12290 | 33007 ft | 479 kts | 154° |
| 2026-04-25 07:37 | 45.75917 | 18.14234 | 33198 ft | 476 kts | 162° |
| 2026-04-25 07:38 | 45.72742 | 18.15561 | 33379 ft | 475 kts | 168° |
| 2026-04-25 07:38 | 45.69583 | 18.16700 | 33555 ft | 475 kts | 168° |
| 2026-04-25 07:38 | 45.66385 | 18.17861 | 33749 ft | 474 kts | 167° |
| 2026-04-25 07:38 | 45.63185 | 18.19030 | 33936 ft | 474 kts | 167° |
| 2026-04-25 07:39 | 45.59989 | 18.20199 | 34109 ft | 474 kts | 167° |
| 2026-04-25 07:39 | 45.56794 | 18.21369 | 34263 ft | 474 kts | 167° |
| 2026-04-25 07:39 | 45.53598 | 18.22539 | 34413 ft | 474 kts | 167° |
| 2026-04-25 07:39 | 45.50400 | 18.23704 | 34556 ft | 474 kts | 167° |
| 2026-04-25 07:40 | 45.47203 | 18.24858 | 34709 ft | 474 kts | 167° |
| 2026-04-25 07:40 | 45.44005 | 18.26009 | 34863 ft | 474 kts | 167° |
| 2026-04-25 07:40 | 45.40854 | 18.27144 | 35025 ft | 473 kts | 167° |
| 2026-04-25 07:40 | 45.37662 | 18.28296 | 35081 ft | 473 kts | 167° |
| 2026-04-25 07:41 | 45.31294 | 18.30588 | 35082 ft | 472 kts | 167° |
| 2026-04-25 07:41 | 45.24931 | 18.32878 | 35088 ft | 472 kts | 167° |
| 2026-04-25 07:42 | 45.18571 | 18.35168 | 35095 ft | 471 kts | 167° |
| 2026-04-25 07:42 | 45.12257 | 18.37435 | 35092 ft | 471 kts | 167° |
| 2026-04-25 07:43 | 45.05798 | 18.38801 | 35091 ft | 470 kts | 175° |
| 2026-04-25 07:43 | 44.99294 | 18.39704 | 35094 ft | 470 kts | 175° |
| 2026-04-25 07:44 | 44.92832 | 18.40617 | 35097 ft | 470 kts | 175° |
| 2026-04-25 07:44 | 44.86330 | 18.41554 | 35106 ft | 470 kts | 175° |
| 2026-04-25 07:45 | 44.79828 | 18.42482 | 35107 ft | 470 kts | 175° |
| 2026-04-25 07:45 | 44.73327 | 18.43399 | 35116 ft | 469 kts | 175° |
| 2026-04-25 07:46 | 44.66830 | 18.44314 | 35119 ft | 469 kts | 175° |
| 2026-04-25 07:46 | 44.60381 | 18.45211 | 35124 ft | 469 kts | 175° |
| 2026-04-25 07:47 | 44.53887 | 18.46120 | 35127 ft | 469 kts | 175° |
| 2026-04-25 07:47 | 44.47403 | 18.47031 | 35129 ft | 468 kts | 174° |
| 2026-04-25 07:48 | 44.40913 | 18.47940 | 35132 ft | 468 kts | 174° |
| 2026-04-25 07:48 | 44.34472 | 18.48833 | 35134 ft | 468 kts | 174° |
| 2026-04-25 07:49 | 44.27989 | 18.49728 | 35134 ft | 468 kts | 174° |
| 2026-04-25 07:49 | 44.21507 | 18.50619 | 35141 ft | 468 kts | 174° |
| 2026-04-25 07:50 | 44.15023 | 18.51515 | 35144 ft | 468 kts | 174° |
| 2026-04-25 07:50 | 44.08587 | 18.52410 | 35156 ft | 468 kts | 174° |
| 2026-04-25 07:51 | 44.02100 | 18.53302 | 35164 ft | 468 kts | 174° |
| 2026-04-25 07:51 | 43.95624 | 18.54188 | 35171 ft | 468 kts | 174° |
| 2026-04-25 07:52 | 43.89151 | 18.55075 | 35173 ft | 467 kts | 174° |
| 2026-04-25 07:52 | 43.82724 | 18.55960 | 35178 ft | 467 kts | 174° |
| 2026-04-25 07:53 | 43.76258 | 18.56842 | 35179 ft | 467 kts | 173° |
| 2026-04-25 07:53 | 43.69794 | 18.57726 | 35172 ft | 466 kts | 173° |
| 2026-04-25 07:54 | 43.63331 | 18.58603 | 35169 ft | 466 kts | 173° |
| 2026-04-25 07:54 | 43.56921 | 18.59471 | 35166 ft | 466 kts | 173° |
| 2026-04-25 07:55 | 43.50467 | 18.60343 | 35162 ft | 466 kts | 173° |
| 2026-04-25 07:55 | 43.44020 | 18.61204 | 35159 ft | 465 kts | 173° |
| 2026-04-25 07:56 | 43.37579 | 18.62070 | 35155 ft | 465 kts | 173° |
| 2026-04-25 07:56 | 43.31190 | 18.62946 | 35150 ft | 465 kts | 173° |
| 2026-04-25 07:57 | 43.24755 | 18.63819 | 35147 ft | 464 kts | 173° |
| 2026-04-25 07:57 | 43.18324 | 18.64676 | 35143 ft | 464 kts | 173° |
| 2026-04-25 07:58 | 43.11895 | 18.65529 | 35136 ft | 464 kts | 173° |
| 2026-04-25 07:58 | 43.05516 | 18.66372 | 35132 ft | 463 kts | 173° |
| 2026-04-25 07:59 | 42.99186 | 18.67822 | 35131 ft | 461 kts | 166° |
| 2026-04-25 07:59 | 42.92903 | 18.69604 | 35128 ft | 461 kts | 166° |
| 2026-04-25 08:00 | 42.86624 | 18.71368 | 35118 ft | 461 kts | 166° |
| 2026-04-25 08:00 | 42.80390 | 18.73111 | 35116 ft | 460 kts | 166° |
| 2026-04-25 08:01 | 42.74119 | 18.74872 | 35106 ft | 460 kts | 166° |
| 2026-04-25 08:01 | 42.67850 | 18.76629 | 35099 ft | 460 kts | 166° |
| 2026-04-25 08:02 | 42.61576 | 18.78379 | 35103 ft | 460 kts | 166° |
| 2026-04-25 08:02 | 42.55350 | 18.80104 | 35096 ft | 460 kts | 166° |
| 2026-04-25 08:03 | 42.49072 | 18.81840 | 35092 ft | 460 kts | 166° |
| 2026-04-25 08:03 | 42.42803 | 18.83583 | 35088 ft | 460 kts | 166° |
| 2026-04-25 08:04 | 42.36579 | 18.85307 | 35087 ft | 460 kts | 166° |
| 2026-04-25 08:04 | 42.30300 | 18.87034 | 35085 ft | 460 kts | 166° |
| 2026-04-25 08:05 | 42.24021 | 18.88757 | 35093 ft | 460 kts | 166° |
| 2026-04-25 08:05 | 42.17744 | 18.90486 | 35094 ft | 461 kts | 165° |
| 2026-04-25 08:06 | 42.11505 | 18.92197 | 35095 ft | 461 kts | 165° |
| 2026-04-25 08:06 | 42.05219 | 18.93919 | 35100 ft | 461 kts | 165° |
| 2026-04-25 08:07 | 41.98928 | 18.95633 | 35107 ft | 461 kts | 165° |
| 2026-04-25 08:07 | 41.92637 | 18.97341 | 35107 ft | 461 kts | 165° |
| 2026-04-25 08:08 | 41.86350 | 18.99051 | 35102 ft | 461 kts | 165° |
| 2026-04-25 08:08 | 41.80100 | 19.00761 | 35106 ft | 461 kts | 165° |
| 2026-04-25 08:09 | 41.73813 | 19.02472 | 35098 ft | 461 kts | 165° |
| 2026-04-25 08:09 | 41.67527 | 19.04173 | 35099 ft | 461 kts | 165° |
| 2026-04-25 08:10 | 41.61237 | 19.05868 | 35094 ft | 461 kts | 165° |
| 2026-04-25 08:10 | 41.54987 | 19.07544 | 35099 ft | 461 kts | 165° |
| 2026-04-25 08:11 | 41.48694 | 19.09241 | 35096 ft | 461 kts | 165° |
| 2026-04-25 08:11 | 41.42575 | 19.11587 | 35100 ft | 456 kts | 156° |
| 2026-04-25 08:12 | 41.36616 | 19.14507 | 35095 ft | 456 kts | 156° |
| 2026-04-25 08:12 | 41.30698 | 19.17404 | 35088 ft | 456 kts | 156° |
| 2026-04-25 08:13 | 41.24747 | 19.20302 | 35094 ft | 456 kts | 156° |
| 2026-04-25 08:14 | 41.15814 | 19.24632 | 35085 ft | 455 kts | 156° |
| 2026-04-25 08:14 | 41.09902 | 19.27496 | 35088 ft | 455 kts | 156° |
| 2026-04-25 08:15 | 41.03950 | 19.30384 | 35087 ft | 455 kts | 156° |
| 2026-04-25 08:15 | 40.97999 | 19.33258 | 35089 ft | 456 kts | 156° |
| 2026-04-25 08:16 | 40.92043 | 19.36127 | 35084 ft | 456 kts | 156° |
| 2026-04-25 08:16 | 40.86129 | 19.38973 | 35092 ft | 455 kts | 156° |
| 2026-04-25 08:16 | 40.83162 | 19.40399 | 34817 ft | 453 kts | 156° |
| 2026-04-25 08:17 | 40.80190 | 19.41828 | 34334 ft | 455 kts | 156° |
| 2026-04-25 08:17 | 40.77210 | 19.43262 | 33802 ft | 456 kts | 156° |
| 2026-04-25 08:17 | 40.74222 | 19.44698 | 33131 ft | 457 kts | 156° |
| 2026-04-25 08:17 | 40.71226 | 19.46133 | 32468 ft | 459 kts | 156° |
| 2026-04-25 08:18 | 40.68221 | 19.47566 | 31822 ft | 460 kts | 156° |
| 2026-04-25 08:18 | 40.65241 | 19.48985 | 31201 ft | 462 kts | 156° |
| 2026-04-25 08:18 | 40.62216 | 19.50427 | 30586 ft | 464 kts | 157° |
| 2026-04-25 08:18 | 40.59174 | 19.51874 | 29946 ft | 465 kts | 156° |
| 2026-04-25 08:19 | 40.56130 | 19.53323 | 29247 ft | 466 kts | 157° |
| 2026-04-25 08:19 | 40.53077 | 19.54775 | 28554 ft | 468 kts | 157° |
| 2026-04-25 08:19 | 40.50010 | 19.56233 | 27884 ft | 469 kts | 157° |
| 2026-04-25 08:19 | 40.46943 | 19.57690 | 27231 ft | 468 kts | 157° |
| 2026-04-25 08:20 | 40.43894 | 19.59136 | 26589 ft | 464 kts | 157° |
| 2026-04-25 08:20 | 40.40908 | 19.60544 | 25969 ft | 460 kts | 157° |
| 2026-04-25 08:20 | 40.37912 | 19.61955 | 25356 ft | 456 kts | 157° |
| 2026-04-25 08:20 | 40.34940 | 19.63354 | 24769 ft | 452 kts | 157° |
| 2026-04-25 08:21 | 40.31997 | 19.64744 | 24169 ft | 448 kts | 157° |
| 2026-04-25 08:21 | 40.29079 | 19.66120 | 23586 ft | 444 kts | 157° |
| 2026-04-25 08:21 | 40.26182 | 19.67486 | 22903 ft | 440 kts | 157° |
| 2026-04-25 08:21 | 40.23316 | 19.68836 | 22240 ft | 436 kts | 157° |
| 2026-04-25 08:22 | 40.20470 | 19.70174 | 21588 ft | 432 kts | 157° |
| 2026-04-25 08:22 | 40.17652 | 19.71498 | 20953 ft | 429 kts | 157° |
| 2026-04-25 08:22 | 40.14896 | 19.72791 | 20334 ft | 425 kts | 157° |
| 2026-04-25 08:22 | 40.12125 | 19.74089 | 19717 ft | 421 kts | 157° |
| 2026-04-25 08:23 | 40.09381 | 19.75375 | 19130 ft | 417 kts | 157° |
| 2026-04-25 08:23 | 40.06660 | 19.76652 | 18542 ft | 414 kts | 157° |
| 2026-04-25 08:23 | 40.03955 | 19.77920 | 17907 ft | 411 kts | 157° |
| 2026-04-25 08:23 | 40.01280 | 19.79174 | 17250 ft | 407 kts | 157° |
| 2026-04-25 08:24 | 39.99520 | 19.79998 | 16826 ft | 405 kts | 158° |
| 2026-04-25 08:24 | 39.96183 | 19.81556 | 16027 ft | 400 kts | 158° |
| 2026-04-25 08:24 | 39.93575 | 19.82772 | 15408 ft | 397 kts | 158° |
| 2026-04-25 08:24 | 39.90987 | 19.83979 | 14798 ft | 394 kts | 158° |
| 2026-04-25 08:25 | 39.88418 | 19.85187 | 14201 ft | 391 kts | 157° |
| 2026-04-25 08:25 | 39.85845 | 19.86275 | 13580 ft | 389 kts | 167° |
| 2026-04-25 08:25 | 39.83175 | 19.86449 | 12911 ft | 377 kts | 186° |
| 2026-04-25 08:25 | 39.80731 | 19.85563 | 12469 ft | 356 kts | 204° |
| 2026-04-25 08:26 | 39.78698 | 19.83867 | 12109 ft | 342 kts | 221° |
| 2026-04-25 08:26 | 39.77176 | 19.81628 | 11761 ft | 331 kts | 237° |
| 2026-04-25 08:26 | 39.75917 | 19.79172 | 11412 ft | 322 kts | 233° |
| 2026-04-25 08:26 | 39.74538 | 19.76925 | 11071 ft | 314 kts | 230° |
| 2026-04-25 08:27 | 39.73109 | 19.74810 | 10724 ft | 308 kts | 227° |
| 2026-04-25 08:27 | 39.71655 | 19.72788 | 10396 ft | 305 kts | 225° |
| 2026-04-25 08:27 | 39.70145 | 19.70862 | 10060 ft | 303 kts | 223° |
| 2026-04-25 08:27 | 39.68568 | 19.69063 | 9700 ft | 301 kts | 219° |
| 2026-04-25 08:28 | 39.66925 | 19.67401 | 9332 ft | 298 kts | 216° |
| 2026-04-25 08:28 | 39.65231 | 19.65882 | 8971 ft | 295 kts | 212° |
| 2026-04-25 08:28 | 39.63515 | 19.64505 | 8614 ft | 292 kts | 210° |
| 2026-04-25 08:28 | 39.61740 | 19.63241 | 8260 ft | 290 kts | 206° |
| 2026-04-25 08:29 | 39.59932 | 19.62112 | 7907 ft | 287 kts | 203° |
| 2026-04-25 08:29 | 39.58096 | 19.61120 | 7556 ft | 286 kts | 200° |
| 2026-04-25 08:29 | 39.56231 | 19.60253 | 7214 ft | 284 kts | 198° |
| 2026-04-25 08:29 | 39.54347 | 19.59516 | 6868 ft | 282 kts | 194° |
| 2026-04-25 08:30 | 39.52452 | 19.58916 | 6533 ft | 279 kts | 192° |
| 2026-04-25 08:30 | 39.50556 | 19.58446 | 6177 ft | 277 kts | 189° |
| 2026-04-25 08:30 | 39.48674 | 19.58101 | 5826 ft | 276 kts | 186° |
| 2026-04-25 08:30 | 39.46766 | 19.57881 | 5469 ft | 276 kts | 183° |
| 2026-04-25 08:31 | 39.44854 | 19.57864 | 5204 ft | 275 kts | 171° |
| 2026-04-25 08:31 | 39.43054 | 19.58635 | 4957 ft | 274 kts | 149° |
| 2026-04-25 08:31 | 39.41607 | 19.60202 | 4705 ft | 272 kts | 127° |
| 2026-04-25 08:31 | 39.40699 | 19.62322 | 4449 ft | 270 kts | 106° |
| 2026-04-25 08:32 | 39.40385 | 19.64696 | 4194 ft | 268 kts | 94° |
| 2026-04-25 08:32 | 39.40202 | 19.67093 | 3940 ft | 268 kts | 94° |
| 2026-04-25 08:32 | 39.40018 | 19.69485 | 3688 ft | 267 kts | 94° |
| 2026-04-25 08:32 | 39.39837 | 19.71838 | 3469 ft | 266 kts | 94° |
| 2026-04-25 08:33 | 39.39731 | 19.74212 | 3300 ft | 264 kts | 87° |
| 2026-04-25 08:33 | 39.39773 | 19.76583 | 3199 ft | 264 kts | 88° |
| 2026-04-25 08:33 | 39.39805 | 19.78954 | 3097 ft | 264 kts | 88° |
| 2026-04-25 08:33 | 39.39835 | 19.81321 | 2978 ft | 260 kts | 88° |
| 2026-04-25 08:34 | 39.39864 | 19.83600 | 2909 ft | 245 kts | 88° |
| 2026-04-25 08:34 | 39.39891 | 19.85730 | 2912 ft | 229 kts | 88° |
| 2026-04-25 08:34 | 39.39990 | 19.87707 | 2912 ft | 213 kts | 77° |
| 2026-04-25 08:34 | 39.40367 | 19.89506 | 2913 ft | 210 kts | 71° |
| 2026-04-25 08:35 | 39.40781 | 19.91309 | 2930 ft | 209 kts | 71° |
| 2026-04-25 08:35 | 39.41181 | 19.93065 | 2915 ft | 197 kts | 72° |
| 2026-04-25 08:35 | 39.41560 | 19.94731 | 2915 ft | 191 kts | 71° |
| 2026-04-25 08:35 | 39.42068 | 19.96286 | 2916 ft | 186 kts | 49° |
| 2026-04-25 08:36 | 39.43103 | 19.97159 | 2906 ft | 172 kts | 12° |
| 2026-04-25 08:36 | 39.44259 | 19.97089 | 2908 ft | 166 kts | 343° |
| 2026-04-25 08:36 | 39.44990 | 19.96809 | 2909 ft | 164 kts | 344° |
| 2026-04-25 08:36 | 39.46398 | 19.96278 | 2652 ft | 153 kts | 344° |
| 2026-04-25 08:37 | 39.47403 | 19.95902 | 2435 ft | 149 kts | 344° |
| 2026-04-25 08:37 | 39.48393 | 19.95530 | 2221 ft | 147 kts | 344° |
| 2026-04-25 08:37 | 39.49369 | 19.95141 | 2020 ft | 147 kts | 341° |
| 2026-04-25 08:37 | 39.50326 | 19.94678 | 1824 ft | 147 kts | 340° |
| 2026-04-25 08:38 | 39.51276 | 19.94200 | 1610 ft | 147 kts | 339° |
| 2026-04-25 08:38 | 39.52221 | 19.93708 | 1407 ft | 146 kts | 338° |
| 2026-04-25 08:38 | 39.52844 | 19.93386 | 1279 ft | 146 kts | 339° |
| 2026-04-25 08:38 | 39.53793 | 19.92917 | 1102 ft | 146 kts | 342° |
| 2026-04-25 08:39 | 39.55099 | 19.92524 | 871 ft | 145 kts | 348° |
| 2026-04-25 08:39 | 39.56097 | 19.92294 | 675 ft | 146 kts | 349° |
| 2026-04-25 08:39 | 39.57089 | 19.92022 | 469 ft | 146 kts | 347° |
| 2026-04-25 08:39 | 39.58086 | 19.91764 | 267 ft | 146 kts | 349° |
| 2026-04-25 08:40 | 39.58744 | 19.91592 | 145 ft | 146 kts | 348° |
| 2026-04-25 08:40 | 39.59728 | 19.91335 | 27 ft | 139 kts | 348° |
| 2026-04-25 08:40 | 39.60472 | 19.91140 | 19 ft | 70 kts | 348° |
| 2026-04-25 08:40 | 39.60827 | 19.91048 | 20 ft | 37 kts | 348° |
| 2026-04-25 08:41 | 39.60997 | 19.91006 | 19 ft | 14 kts | 359° |
| 2026-04-25 08:41 | 39.61039 | 19.91051 | 19 ft | 6 kts | 57° |
| 2026-04-25 08:41 | 39.61056 | 19.91085 | 19 ft | 0 kts | 57° |
| 2026-04-25 08:41 | 39.61057 | 19.91090 | 19 ft | 3 kts | 72° |
| 2026-04-25 08:42 | 39.61019 | 19.91133 | 19 ft | 13 kts | 165° |
| 2026-04-25 08:42 | 39.60947 | 19.91153 | 19 ft | 0 kts | 168° |
| 2026-04-25 08:42 | 39.60940 | 19.91155 | 19 ft | 5 kts | 168° |
| 2026-04-25 08:42 | 39.60882 | 19.91170 | 18 ft | 10 kts | 168° |
| 2026-04-25 08:43 | 39.60818 | 19.91187 | 18 ft | 9 kts | 168° |
| 2026-04-25 08:43 | 39.60760 | 19.91202 | 18 ft | 8 kts | 168° |
| 2026-04-25 08:43 | 39.60748 | 19.91245 | 18 ft | 5 kts | 82° |
| 2026-04-25 08:43 | 39.60753 | 19.91282 | 18 ft | 4 kts | 79° |
| 2026-04-25 08:44 | 39.60757 | 19.91308 | 20 ft | 2 kts | 79° |
| 2026-04-25 08:44 | 39.60759 | 19.91319 | 19 ft | 0 kts | 79° |